sensor_id;sensor_type;location;lat;lon;timestamp;pressure;altitude;pressure_sealevel;temperature;humidity
42125;BME280;27787;44.594;11.046;2023-04-09T00:01:07;101402.03;;;11.08;80.17
42125;BME280;27787;44.594;11.046;2023-04-09T00:03:52;101404.53;;;11.01;79.84
42125;BME280;27787;44.594;11.046;2023-04-09T00:06:37;101405.28;;;10.92;80.08
42125;BME280;27787;44.594;11.046;2023-04-09T00:09:21;101401.63;;;10.84;80.16
42125;BME280;27787;44.594;11.046;2023-04-09T00:12:05;101399.75;;;10.78;80.20
42125;BME280;27787;44.594;11.046;2023-04-09T00:14:50;101398.81;;;10.73;80.11
42125;BME280;27787;44.594;11.046;2023-04-09T00:17:34;101398.78;;;10.72;80.02
42125;BME280;27787;44.594;11.046;2023-04-09T00:20:19;101399.56;;;10.66;79.24
42125;BME280;27787;44.594;11.046;2023-04-09T00:23:03;101402.13;;;10.61;79.59
42125;BME280;27787;44.594;11.046;2023-04-09T00:25:47;101406.47;;;10.58;79.34
42125;BME280;27787;44.594;11.046;2023-04-09T00:28:31;101403.88;;;10.61;78.95
42125;BME280;27787;44.594;11.046;2023-04-09T00:31:16;101409.09;;;10.56;78.23
42125;BME280;27787;44.594;11.046;2023-04-09T00:34:00;101410.69;;;10.48;78.24
42125;BME280;27787;44.594;11.046;2023-04-09T00:36:44;101411.56;;;10.49;78.81
42125;BME280;27787;44.594;11.046;2023-04-09T00:39:29;101418.63;;;10.50;78.15
42125;BME280;27787;44.594;11.046;2023-04-09T00:42:13;101413.34;;;10.50;77.83
42125;BME280;27787;44.594;11.046;2023-04-09T00:44:58;101418.53;;;10.44;77.14
42125;BME280;27787;44.594;11.046;2023-04-09T00:47:43;101418.44;;;10.39;77.04
42125;BME280;27787;44.594;11.046;2023-04-09T00:50:29;101409.47;;;10.29;77.09
42125;BME280;27787;44.594;11.046;2023-04-09T00:53:13;101410.22;;;10.24;77.20
42125;BME280;27787;44.594;11.046;2023-04-09T00:55:59;101412.88;;;10.24;77.44
42125;BME280;27787;44.594;11.046;2023-04-09T00:58:44;101414.75;;;10.29;77.20
42125;BME280;27787;44.594;11.046;2023-04-09T01:01:29;101420.03;;;10.29;77.15
42125;BME280;27787;44.594;11.046;2023-04-09T01:04:13;101411.16;;;10.26;76.74
42125;BME280;27787;44.594;11.046;2023-04-09T01:07:06;101422.44;;;10.20;76.52
42125;BME280;27787;44.594;11.046;2023-04-09T01:10:00;101419.69;;;10.14;77.11
42125;BME280;27787;44.594;11.046;2023-04-09T01:13:14;101423.09;;;10.09;76.83
42125;BME280;27787;44.594;11.046;2023-04-09T01:16:00;101429.25;;;10.09;77.33
42125;BME280;27787;44.594;11.046;2023-04-09T01:18:56;101423.13;;;10.10;76.65
42125;BME280;27787;44.594;11.046;2023-04-09T01:21:43;101434.53;;;10.09;76.18
42125;BME280;27787;44.594;11.046;2023-04-09T01:28:22;101439.72;;;10.03;76.11
42125;BME280;27787;44.594;11.046;2023-04-09T01:31:14;101439.63;;;10.00;75.12
42125;BME280;27787;44.594;11.046;2023-04-09T01:34:01;101445.59;;;9.90;75.32
42125;BME280;27787;44.594;11.046;2023-04-09T01:36:52;101440.13;;;9.82;75.72
42125;BME280;27787;44.594;11.046;2023-04-09T01:39:38;101439.22;;;9.80;75.33
42125;BME280;27787;44.594;11.046;2023-04-09T01:42:22;101435.69;;;9.80;75.08
42125;BME280;27787;44.594;11.046;2023-04-09T01:45:07;101438.28;;;9.77;75.08
42125;BME280;27787;44.594;11.046;2023-04-09T01:47:54;101439.94;;;9.73;74.72
42125;BME280;27787;44.594;11.046;2023-04-09T01:50:39;101443.44;;;9.72;74.97
42125;BME280;27787;44.594;11.046;2023-04-09T01:53:24;101440.72;;;9.69;74.80
42125;BME280;27787;44.594;11.046;2023-04-09T01:56:11;101430.13;;;9.66;74.91
42125;BME280;27787;44.594;11.046;2023-04-09T01:58:55;101434.47;;;9.64;74.51
42125;BME280;27787;44.594;11.046;2023-04-09T02:01:45;101428.16;;;9.57;74.44
42125;BME280;27787;44.594;11.046;2023-04-09T02:04:34;101427.22;;;9.54;74.55
42125;BME280;27787;44.594;11.046;2023-04-09T02:10:18;101426.34;;;9.55;74.16
42125;BME280;27787;44.594;11.046;2023-04-09T02:13:04;101429.84;;;9.54;73.90
42125;BME280;27787;44.594;11.046;2023-04-09T02:15:51;101428.06;;;9.53;73.81
42125;BME280;27787;44.594;11.046;2023-04-09T02:18:35;101430.59;;;9.48;73.97
42125;BME280;27787;44.594;11.046;2023-04-09T02:21:21;101430.41;;;9.39;74.19
42125;BME280;27787;44.594;11.046;2023-04-09T02:24:05;101431.91;;;9.28;74.81
42125;BME280;27787;44.594;11.046;2023-04-09T02:26:49;101432.66;;;9.24;75.07
42125;BME280;27787;44.594;11.046;2023-04-09T02:29:33;101436.19;;;9.24;75.85
42125;BME280;27787;44.594;11.046;2023-04-09T02:32:18;101450.28;;;9.25;75.24
42125;BME280;27787;44.594;11.046;2023-04-09T02:35:02;101441.41;;;9.23;75.02
42125;BME280;27787;44.594;11.046;2023-04-09T02:37:46;101436.97;;;9.20;75.51
42125;BME280;27787;44.594;11.046;2023-04-09T02:40:30;101444.00;;;9.21;75.37
42125;BME280;27787;44.594;11.046;2023-04-09T02:43:15;101444.94;;;9.23;75.46
42125;BME280;27787;44.594;11.046;2023-04-09T02:45:59;101442.28;;;9.22;75.44
42125;BME280;27787;44.594;11.046;2023-04-09T02:48:43;101439.63;;;9.22;75.63
42125;BME280;27787;44.594;11.046;2023-04-09T02:51:28;101442.31;;;9.23;75.84
42125;BME280;27787;44.594;11.046;2023-04-09T02:54:12;101438.75;;;9.21;75.89
42125;BME280;27787;44.594;11.046;2023-04-09T02:56:56;101440.69;;;9.28;75.93
42125;BME280;27787;44.594;11.046;2023-04-09T02:59:40;101445.94;;;9.27;76.23
42125;BME280;27787;44.594;11.046;2023-04-09T03:02:25;101443.19;;;9.24;76.14
42125;BME280;27787;44.594;11.046;2023-04-09T03:05:09;101441.31;;;9.18;76.12
42125;BME280;27787;44.594;11.046;2023-04-09T03:07:54;101443.03;;;9.16;76.56
42125;BME280;27787;44.594;11.046;2023-04-09T03:10:39;101436.88;;;9.15;76.58
42125;BME280;27787;44.594;11.046;2023-04-09T03:13:23;101436.94;;;9.19;76.21
42125;BME280;27787;44.594;11.046;2023-04-09T03:16:07;101431.72;;;9.22;75.58
42125;BME280;27787;44.594;11.046;2023-04-09T03:18:53;101435.44;;;9.30;75.18
42125;BME280;27787;44.594;11.046;2023-04-09T03:21:37;101436.47;;;9.36;74.96
42125;BME280;27787;44.594;11.046;2023-04-09T03:24:22;101435.72;;;9.42;73.97
42125;BME280;27787;44.594;11.046;2023-04-09T03:27:07;101438.34;;;9.40;73.80
42125;BME280;27787;44.594;11.046;2023-04-09T03:29:54;101437.34;;;9.37;73.70
42125;BME280;27787;44.594;11.046;2023-04-09T03:32:41;101432.06;;;9.35;73.94
42125;BME280;27787;44.594;11.046;2023-04-09T03:35:28;101438.16;;;9.33;74.05
42125;BME280;27787;44.594;11.046;2023-04-09T03:38:16;101438.16;;;9.33;74.27
42125;BME280;27787;44.594;11.046;2023-04-09T03:41:00;101433.81;;;9.36;73.98
42125;BME280;27787;44.594;11.046;2023-04-09T03:43:45;101442.56;;;9.34;74.07
42125;BME280;27787;44.594;11.046;2023-04-09T03:46:32;101440.94;;;9.39;73.90
42125;BME280;27787;44.594;11.046;2023-04-09T03:49:17;101440.06;;;9.38;73.17
42125;BME280;27787;44.594;11.046;2023-04-09T03:52:02;101448.69;;;9.33;73.41
42125;BME280;27787;44.594;11.046;2023-04-09T03:54:54;101450.34;;;9.28;73.77
42125;BME280;27787;44.594;11.046;2023-04-09T03:57:41;101447.66;;;9.26;73.73
42125;BME280;27787;44.594;11.046;2023-04-09T04:00:30;101449.34;;;9.24;73.94
42125;BME280;27787;44.594;11.046;2023-04-09T04:03:31;101451.97;;;9.24;74.05
42125;BME280;27787;44.594;11.046;2023-04-09T04:06:38;101454.63;;;9.24;74.23
42125;BME280;27787;44.594;11.046;2023-04-09T04:09:38;101452.91;;;9.25;73.81
42125;BME280;27787;44.594;11.046;2023-04-09T04:12:30;101445.06;;;9.28;74.10
42125;BME280;27787;44.594;11.046;2023-04-09T04:15:22;101447.63;;;9.25;73.75
42125;BME280;27787;44.594;11.046;2023-04-09T04:18:11;101447.66;;;9.26;74.37
42125;BME280;27787;44.594;11.046;2023-04-09T04:21:01;101451.25;;;9.30;74.18
42125;BME280;27787;44.594;11.046;2023-04-09T04:23:46;101455.75;;;9.35;73.87
42125;BME280;27787;44.594;11.046;2023-04-09T04:26:43;101451.28;;;9.31;73.46
42125;BME280;27787;44.594;11.046;2023-04-09T04:29:30;101447.69;;;9.28;73.89
42125;BME280;27787;44.594;11.046;2023-04-09T04:32:17;101457.25;;;9.24;73.48
42125;BME280;27787;44.594;11.046;2023-04-09T04:35:02;101463.28;;;9.19;73.77
42125;BME280;27787;44.594;11.046;2023-04-09T04:37:48;101471.91;;;9.11;73.76
42125;BME280;27787;44.594;11.046;2023-04-09T04:40:34;101470.81;;;9.03;74.31
42125;BME280;27787;44.594;11.046;2023-04-09T04:43:20;101471.50;;;8.96;74.58
42125;BME280;27787;44.594;11.046;2023-04-09T04:46:11;101475.13;;;9.00;75.24
42125;BME280;27787;44.594;11.046;2023-04-09T04:48:56;101476.22;;;9.09;74.71
42125;BME280;27787;44.594;11.046;2023-04-09T04:51:40;101478.94;;;9.12;74.90
42125;BME280;27787;44.594;11.046;2023-04-09T04:54:27;101479.16;;;9.22;75.06
42125;BME280;27787;44.594;11.046;2023-04-09T04:57:14;101488.97;;;9.27;74.18
42125;BME280;27787;44.594;11.046;2023-04-09T04:59:59;101489.69;;;9.22;74.44
42125;BME280;27787;44.594;11.046;2023-04-09T05:02:43;101489.63;;;9.19;74.42
42125;BME280;27787;44.594;11.046;2023-04-09T05:05:50;101492.19;;;9.15;74.57
42125;BME280;27787;44.594;11.046;2023-04-09T05:08:34;101492.03;;;9.11;74.87
42125;BME280;27787;44.594;11.046;2023-04-09T05:11:19;101491.94;;;9.06;75.16
42125;BME280;27787;44.594;11.046;2023-04-09T05:14:05;101494.50;;;9.03;75.13
42125;BME280;27787;44.594;11.046;2023-04-09T05:16:50;101486.59;;;9.03;75.26
42125;BME280;27787;44.594;11.046;2023-04-09T05:19:38;101492.66;;;8.99;75.26
42125;BME280;27787;44.594;11.046;2023-04-09T05:22:23;101487.53;;;9.05;75.40
42125;BME280;27787;44.594;11.046;2023-04-09T05:25:07;101483.34;;;9.13;75.39
42125;BME280;27787;44.594;11.046;2023-04-09T05:27:55;101489.69;;;9.22;74.69
42125;BME280;27787;44.594;11.046;2023-04-09T05:30:45;101488.13;;;9.30;74.85
42125;BME280;27787;44.594;11.046;2023-04-09T05:33:30;101489.28;;;9.41;74.25
42125;BME280;27787;44.594;11.046;2023-04-09T05:36:23;101495.63;;;9.49;73.11
42125;BME280;27787;44.594;11.046;2023-04-09T05:39:09;101501.88;;;9.53;73.16
42125;BME280;27787;44.594;11.046;2023-04-09T05:41:53;101494.94;;;9.58;72.85
42125;BME280;27787;44.594;11.046;2023-04-09T05:44:39;101499.53;;;9.65;72.55
42125;BME280;27787;44.594;11.046;2023-04-09T05:47:32;101505.59;;;9.62;72.64
42125;BME280;27787;44.594;11.046;2023-04-09T05:50:29;101508.22;;;9.62;72.22
42125;BME280;27787;44.594;11.046;2023-04-09T05:53:13;101508.94;;;9.55;72.51
42125;BME280;27787;44.594;11.046;2023-04-09T05:55:58;101513.28;;;9.52;72.71
42125;BME280;27787;44.594;11.046;2023-04-09T05:58:57;101516.53;;;9.41;73.24
42125;BME280;27787;44.594;11.046;2023-04-09T06:01:41;101515.44;;;9.33;73.82
42125;BME280;27787;44.594;11.046;2023-04-09T06:04:26;101520.69;;;9.32;74.36
42125;BME280;27787;44.594;11.046;2023-04-09T06:07:10;101518.03;;;9.32;74.05
42125;BME280;27787;44.594;11.046;2023-04-09T06:09:54;101524.19;;;9.32;73.93
42125;BME280;27787;44.594;11.046;2023-04-09T06:12:39;101528.50;;;9.29;74.25
42125;BME280;27787;44.594;11.046;2023-04-09T06:15:23;101525.91;;;9.30;74.50
42125;BME280;27787;44.594;11.046;2023-04-09T06:18:08;101532.31;;;9.40;74.79
42125;BME280;27787;44.594;11.046;2023-04-09T06:23:46;101538.38;;;9.37;74.69
42125;BME280;27787;44.594;11.046;2023-04-09T06:26:30;101533.91;;;9.35;75.25
42125;BME280;27787;44.594;11.046;2023-04-09T06:29:16;101533.91;;;9.35;76.15
42125;BME280;27787;44.594;11.046;2023-04-09T06:32:00;101532.31;;;9.40;76.18
42125;BME280;27787;44.594;11.046;2023-04-09T06:34:44;101537.84;;;9.51;75.68
42125;BME280;27787;44.594;11.046;2023-04-09T06:37:29;101541.63;;;9.63;75.37
42125;BME280;27787;44.594;11.046;2023-04-09T06:40:13;101557.75;;;9.75;75.58
42125;BME280;27787;44.594;11.046;2023-04-09T06:42:58;101549.13;;;9.83;75.72
42125;BME280;27787;44.594;11.046;2023-04-09T06:45:48;101555.50;;;9.92;75.93
42125;BME280;27787;44.594;11.046;2023-04-09T06:48:32;101555.63;;;9.98;75.56
42125;BME280;27787;44.594;11.046;2023-04-09T06:51:17;101564.66;;;10.08;75.80
42125;BME280;27787;44.594;11.046;2023-04-09T06:54:03;101564.75;;;10.13;75.49
42125;BME280;27787;44.594;11.046;2023-04-09T06:56:49;101563.84;;;10.12;75.30
42125;BME280;27787;44.594;11.046;2023-04-09T06:59:34;101573.50;;;10.10;75.49
42125;BME280;27787;44.594;11.046;2023-04-09T07:02:18;101577.81;;;10.07;75.92
42125;BME280;27787;44.594;11.046;2023-04-09T07:05:03;101580.41;;;10.05;76.31
42125;BME280;27787;44.594;11.046;2023-04-09T07:07:49;101575.19;;;10.07;76.85
42125;BME280;27787;44.594;11.046;2023-04-09T07:10:33;101579.63;;;10.09;77.36
42125;BME280;27787;44.594;11.046;2023-04-09T07:13:18;101586.09;;;10.22;77.90
42125;BME280;27787;44.594;11.046;2023-04-09T07:16:02;101589.13;;;10.40;77.71
42125;BME280;27787;44.594;11.046;2023-04-09T07:18:46;101588.53;;;10.53;76.52
42125;BME280;27787;44.594;11.046;2023-04-09T07:21:31;101585.16;;;10.60;76.66
42125;BME280;27787;44.594;11.046;2023-04-09T07:24:15;101594.19;;;10.72;76.72
42125;BME280;27787;44.594;11.046;2023-04-09T07:27:02;101586.53;;;10.85;76.16
42125;BME280;27787;44.594;11.046;2023-04-09T07:29:47;101591.19;;;10.99;76.27
42125;BME280;27787;44.594;11.046;2023-04-09T07:32:31;101596.69;;;11.09;77.23
42125;BME280;27787;44.594;11.046;2023-04-09T07:35:18;101590.53;;;11.10;77.71
42125;BME280;27787;44.594;11.046;2023-04-09T07:38:03;101598.53;;;11.15;78.40
42125;BME280;27787;44.594;11.046;2023-04-09T07:40:47;101589.75;;;11.16;77.91
42125;BME280;27787;44.594;11.046;2023-04-09T07:43:32;101594.34;;;11.26;77.63
42125;BME280;27787;44.594;11.046;2023-04-09T07:46:20;101590.16;;;11.39;76.91
42125;BME280;27787;44.594;11.046;2023-04-09T07:49:07;101602.63;;;11.46;76.36
42125;BME280;27787;44.594;11.046;2023-04-09T07:51:51;101598.28;;;11.49;76.55
42125;BME280;27787;44.594;11.046;2023-04-09T07:54:35;101599.25;;;11.56;76.45
42125;BME280;27787;44.594;11.046;2023-04-09T07:57:20;101600.25;;;11.61;76.23
42125;BME280;27787;44.594;11.046;2023-04-09T08:00:05;101594.19;;;11.68;77.18
42125;BME280;27787;44.594;11.046;2023-04-09T08:02:56;101593.44;;;11.75;77.63
42125;BME280;27787;44.594;11.046;2023-04-09T08:05:40;101599.69;;;11.79;77.56
42125;BME280;27787;44.594;11.046;2023-04-09T08:08:25;101593.56;;;11.83;77.59
42125;BME280;27787;44.594;11.046;2023-04-09T08:11:09;101582.22;;;11.90;78.31
42125;BME280;27787;44.594;11.046;2023-04-09T08:13:54;101584.13;;;11.99;78.47
42125;BME280;27787;44.594;11.046;2023-04-09T08:16:39;101589.50;;;12.05;78.45
42125;BME280;27787;44.594;11.046;2023-04-09T08:19:24;101584.31;;;12.13;78.64
42125;BME280;27787;44.594;11.046;2023-04-09T08:22:08;101595.88;;;12.19;78.26
42125;BME280;27787;44.594;11.046;2023-04-09T08:24:54;101591.56;;;12.26;79.17
42125;BME280;27787;44.594;11.046;2023-04-09T08:27:39;101596.94;;;12.33;78.57
42125;BME280;27787;44.594;11.046;2023-04-09T08:30:23;101599.69;;;12.38;78.09
42125;BME280;27787;44.594;11.046;2023-04-09T08:33:07;101604.16;;;12.45;77.98
42125;BME280;27787;44.594;11.046;2023-04-09T08:35:52;101599.78;;;12.47;77.80
42125;BME280;27787;44.594;11.046;2023-04-09T08:38:37;101607.81;;;12.52;77.86
42125;BME280;27787;44.594;11.046;2023-04-09T08:41:23;101616.66;;;12.54;77.78
42125;BME280;27787;44.594;11.046;2023-04-09T08:44:07;101605.19;;;12.55;77.70
42125;BME280;27787;44.594;11.046;2023-04-09T08:46:52;101615.78;;;12.55;77.78
42125;BME280;27787;44.594;11.046;2023-04-09T08:49:40;101606.94;;;12.54;78.11
42125;BME280;27787;44.594;11.046;2023-04-09T08:52:32;101607.00;;;12.59;77.99
42125;BME280;27787;44.594;11.046;2023-04-09T08:55:16;101607.91;;;12.61;77.53
42125;BME280;27787;44.594;11.046;2023-04-09T08:58:05;101614.19;;;12.69;78.02
42125;BME280;27787;44.594;11.046;2023-04-09T09:00:56;101609.88;;;12.77;77.54
42125;BME280;27787;44.594;11.046;2023-04-09T09:04:01;101616.22;;;12.91;77.15
42125;BME280;27787;44.594;11.046;2023-04-09T09:06:46;101616.38;;;13.05;77.16
42125;BME280;27787;44.594;11.046;2023-04-09T09:09:30;101608.63;;;13.20;76.21
42125;BME280;27787;44.594;11.046;2023-04-09T09:12:39;101612.28;;;13.32;75.75
42125;BME280;27787;44.594;11.046;2023-04-09T09:15:28;101614.09;;;13.39;75.38
42125;BME280;27787;44.594;11.046;2023-04-09T09:18:12;101612.31;;;13.39;74.36
42125;BME280;27787;44.594;11.046;2023-04-09T09:21:14;101613.16;;;13.32;74.78
42125;BME280;27787;44.594;11.046;2023-04-09T09:24:01;101610.47;;;13.29;74.92
42125;BME280;27787;44.594;11.046;2023-04-09T09:26:45;101611.38;;;13.30;74.77
42125;BME280;27787;44.594;11.046;2023-04-09T09:29:29;101620.22;;;13.30;74.31
42125;BME280;27787;44.594;11.046;2023-04-09T09:32:14;101603.41;;;13.30;74.25
42125;BME280;27787;44.594;11.046;2023-04-09T09:35:04;101604.31;;;13.30;74.59
42125;BME280;27787;44.594;11.046;2023-04-09T09:38:00;101607.84;;;13.31;74.91
42125;BME280;27787;44.594;11.046;2023-04-09T09:40:46;101601.69;;;13.36;74.68
42125;BME280;27787;44.594;11.046;2023-04-09T09:43:40;101600.84;;;13.39;74.99
42125;BME280;27787;44.594;11.046;2023-04-09T09:46:26;101606.13;;;13.39;74.97
42125;BME280;27787;44.594;11.046;2023-04-09T09:49:10;101595.53;;;13.40;74.91
42125;BME280;27787;44.594;11.046;2023-04-09T09:51:58;101602.69;;;13.46;75.13
42125;BME280;27787;44.594;11.046;2023-04-09T09:54:50;101604.56;;;13.59;73.74
42125;BME280;27787;44.594;11.046;2023-04-09T09:57:41;101602.91;;;13.73;70.89
42125;BME280;27787;44.594;11.046;2023-04-09T10:00:28;101605.66;;;13.84;68.98
42125;BME280;27787;44.594;11.046;2023-04-09T10:03:19;101603.03;;;13.92;68.21
42125;BME280;27787;44.594;11.046;2023-04-09T10:06:05;101601.34;;;14.00;67.99
42125;BME280;27787;44.594;11.046;2023-04-09T10:08:51;101598.78;;;14.15;67.72
42125;BME280;27787;44.594;11.046;2023-04-09T10:11:36;101598.84;;;14.26;65.93
42125;BME280;27787;44.594;11.046;2023-04-09T10:14:21;101601.50;;;14.30;65.51
42125;BME280;27787;44.594;11.046;2023-04-09T10:17:07;101604.22;;;14.33;65.65
42125;BME280;27787;44.594;11.046;2023-04-09T10:19:58;101598.91;;;14.38;64.80
42125;BME280;27787;44.594;11.046;2023-04-09T10:22:48;101588.28;;;14.42;63.63
42125;BME280;27787;44.594;11.046;2023-04-09T10:25:34;101583.91;;;14.44;63.12
42125;BME280;27787;44.594;11.046;2023-04-09T10:28:19;101579.53;;;14.48;62.76
42125;BME280;27787;44.594;11.046;2023-04-09T10:31:04;101585.72;;;14.52;62.19
42125;BME280;27787;44.594;11.046;2023-04-09T10:33:49;101576.91;;;14.59;62.42
42125;BME280;27787;44.594;11.046;2023-04-09T10:36:35;101586.66;;;14.66;62.66
42125;BME280;27787;44.594;11.046;2023-04-09T10:39:19;101582.28;;;14.74;61.62
42125;BME280;27787;44.594;11.046;2023-04-09T10:42:07;101575.19;;;14.84;61.23
42125;BME280;27787;44.594;11.046;2023-04-09T10:45:13;101575.22;;;14.91;60.36
42125;BME280;27787;44.594;11.046;2023-04-09T10:48:01;101571.72;;;14.98;60.67
42125;BME280;27787;44.594;11.046;2023-04-09T10:50:49;101570.81;;;15.05;60.77
42125;BME280;27787;44.594;11.046;2023-04-09T10:53:34;101577.91;;;15.10;60.11
42125;BME280;27787;44.594;11.046;2023-04-09T10:56:19;101570.81;;;15.10;60.89
42125;BME280;27787;44.594;11.046;2023-04-09T10:59:03;101568.19;;;15.13;60.51
42125;BME280;27787;44.594;11.046;2023-04-09T11:01:53;101562.84;;;15.09;60.29
42125;BME280;27787;44.594;11.046;2023-04-09T11:04:50;101568.16;;;15.09;60.01
42125;BME280;27787;44.594;11.046;2023-04-09T11:10:41;101565.50;;;15.04;57.69
42125;BME280;27787;44.594;11.046;2023-04-09T11:13:30;101556.66;;;15.00;57.91
42125;BME280;27787;44.594;11.046;2023-04-09T11:16:17;101546.00;;;15.02;57.16
42125;BME280;27787;44.594;11.046;2023-04-09T11:19:03;101547.78;;;15.09;56.79
42125;BME280;27787;44.594;11.046;2023-04-09T11:21:48;101550.47;;;15.12;55.35
42125;BME280;27787;44.594;11.046;2023-04-09T11:24:40;101546.91;;;15.09;54.97
42125;BME280;27787;44.594;11.046;2023-04-09T11:27:24;101550.47;;;15.14;54.59
42125;BME280;27787;44.594;11.046;2023-04-09T11:30:08;101554.00;;;15.19;53.31
42125;BME280;27787;44.594;11.046;2023-04-09T11:32:53;101549.59;;;15.27;53.42
42125;BME280;27787;44.594;11.046;2023-04-09T11:38:54;101552.25;;;15.45;53.61
42125;BME280;27787;44.594;11.046;2023-04-09T11:41:40;101550.47;;;15.55;53.31
42125;BME280;27787;44.594;11.046;2023-04-09T11:44:24;101549.59;;;15.53;52.18
42125;BME280;27787;44.594;11.046;2023-04-09T11:56:28;101544.25;;;15.57;49.49
42125;BME280;27787;44.594;11.046;2023-04-09T11:59:13;101549.59;;;15.53;49.26
42125;BME280;27787;44.594;11.046;2023-04-09T12:01:58;101547.81;;;15.44;48.56
42125;BME280;27787;44.594;11.046;2023-04-09T12:04:49;101546.03;;;15.35;47.55
42125;BME280;27787;44.594;11.046;2023-04-09T12:07:34;101541.63;;;15.27;47.98
42125;BME280;27787;44.594;11.046;2023-04-09T12:10:19;101528.28;;;15.19;48.01
42125;BME280;27787;44.594;11.046;2023-04-09T12:45:40;101506.16;;;15.37;46.88
42125;BME280;27787;44.594;11.046;2023-04-09T12:48:25;101498.16;;;15.42;47.14
42125;BME280;27787;44.594;11.046;2023-04-09T12:51:10;101494.59;;;15.47;47.89
42125;BME280;27787;44.594;11.046;2023-04-09T12:53:55;101491.94;;;15.55;46.95
42125;BME280;27787;44.594;11.046;2023-04-09T12:56:41;101496.38;;;15.60;46.89
42125;BME280;27787;44.594;11.046;2023-04-09T12:59:26;101487.50;;;15.66;46.31
42125;BME280;27787;44.594;11.046;2023-04-09T13:05:00;101485.72;;;15.79;47.27
42125;BME280;27787;44.594;11.046;2023-04-09T13:10:41;101479.47;;;15.92;46.82
42125;BME280;27787;44.594;11.046;2023-04-09T13:17:19;101469.66;;;16.00;46.21
42125;BME280;27787;44.594;11.046;2023-04-09T13:20:27;101463.44;;;16.04;46.34
42125;BME280;27787;44.594;11.046;2023-04-09T13:23:16;101462.56;;;16.05;45.17
42125;BME280;27787;44.594;11.046;2023-04-09T13:26:01;101460.78;;;16.04;45.80
42125;BME280;27787;44.594;11.046;2023-04-09T13:28:45;101458.13;;;16.04;45.10
42125;BME280;27787;44.594;11.046;2023-04-09T13:31:29;101459.00;;;16.06;45.10
42125;BME280;27787;44.594;11.046;2023-04-09T13:34:14;101450.09;;;16.10;43.99
42125;BME280;27787;44.594;11.046;2023-04-09T13:37:02;101457.16;;;16.14;43.12
42125;BME280;27787;44.594;11.046;2023-04-09T13:39:49;101446.50;;;16.14;42.08
42125;BME280;27787;44.594;11.046;2023-04-09T13:42:39;101443.84;;;16.14;41.04
42125;BME280;27787;44.594;11.046;2023-04-09T13:45:36;101438.53;;;16.17;42.06
42125;BME280;27787;44.594;11.046;2023-04-09T13:48:20;101433.16;;;16.25;43.91
42125;BME280;27787;44.594;11.046;2023-04-09T13:51:06;101439.31;;;16.36;45.18
42125;BME280;27787;44.594;11.046;2023-04-09T13:53:58;101435.72;;;16.45;45.62
42125;BME280;27787;44.594;11.046;2023-04-09T13:57:07;101433.88;;;16.53;45.41
42125;BME280;27787;44.594;11.046;2023-04-09T14:00:10;101432.94;;;16.60;45.30
42125;BME280;27787;44.594;11.046;2023-04-09T14:02:57;101435.56;;;16.66;45.47
42125;BME280;27787;44.594;11.046;2023-04-09T14:05:44;101427.56;;;16.71;44.88
42125;BME280;27787;44.594;11.046;2023-04-09T14:08:34;101420.44;;;16.74;44.45
42125;BME280;27787;44.594;11.046;2023-04-09T14:11:26;101425.72;;;16.84;44.44
42125;BME280;27787;44.594;11.046;2023-04-09T14:14:12;101429.19;;;16.90;44.00
42125;BME280;27787;44.594;11.046;2023-04-09T14:16:59;101430.06;;;16.92;43.96
42125;BME280;27787;44.594;11.046;2023-04-09T14:19:43;101426.47;;;16.98;43.95
42125;BME280;27787;44.594;11.046;2023-04-09T14:22:28;101421.97;;;17.06;43.58
42125;BME280;27787;44.594;11.046;2023-04-09T14:25:21;101418.34;;;17.12;43.16
42125;BME280;27787;44.594;11.046;2023-04-09T14:28:12;101425.41;;;17.16;42.75
42125;BME280;27787;44.594;11.046;2023-04-09T14:31:19;101421.81;;;17.21;42.32
42125;BME280;27787;44.594;11.046;2023-04-09T14:34:29;101421.75;;;17.27;42.00
42125;BME280;27787;44.594;11.046;2023-04-09T14:38:08;101423.47;;;17.36;41.14
42125;BME280;27787;44.594;11.046;2023-04-09T14:41:21;101416.25;;;17.46;41.28
42125;BME280;27787;44.594;11.046;2023-04-09T14:44:10;101412.56;;;17.54;40.44
42125;BME280;27787;44.594;11.046;2023-04-09T14:47:40;101419.63;;;17.63;40.27
42125;BME280;27787;44.594;11.046;2023-04-09T14:50:44;101418.66;;;17.70;40.28
42125;BME280;27787;44.594;11.046;2023-04-09T14:53:35;101425.91;;;17.59;40.04
42125;BME280;27787;44.594;11.046;2023-04-09T14:56:47;101418.78;;;17.58;39.99
42125;BME280;27787;44.594;11.046;2023-04-09T14:59:39;101417.78;;;17.66;40.20
42125;BME280;27787;44.594;11.046;2023-04-09T15:02:31;101415.91;;;17.78;40.09
42125;BME280;27787;44.594;11.046;2023-04-09T15:05:23;101412.19;;;17.91;40.56
42125;BME280;27787;44.594;11.046;2023-04-09T15:08:07;101417.34;;;18.05;41.17
42125;BME280;27787;44.594;11.046;2023-04-09T15:10:51;101422.59;;;18.14;41.30
42125;BME280;27787;44.594;11.046;2023-04-09T15:13:36;101419.72;;;18.29;40.68
42125;BME280;27787;44.594;11.046;2023-04-09T15:16:26;101409.75;;;18.40;39.80
42125;BME280;27787;44.594;11.046;2023-04-09T15:19:10;101420.25;;;18.52;39.20
42125;BME280;27787;44.594;11.046;2023-04-09T15:21:55;101426.50;;;18.53;38.58
42125;BME280;27787;44.594;11.046;2023-04-09T15:24:40;101421.06;;;18.57;38.80
42125;BME280;27787;44.594;11.046;2023-04-09T15:27:24;101418.25;;;18.70;38.84
42125;BME280;27787;44.594;11.046;2023-04-09T15:30:09;101421.63;;;18.81;39.05
42125;BME280;27787;44.594;11.046;2023-04-09T15:32:53;101417.00;;;18.92;39.17
42125;BME280;27787;44.594;11.046;2023-04-09T15:35:37;101409.72;;;19.02;39.16